KISW/ISW METAR and TAF weather

Enter ICAO airport designator
Station Type Date Time Source
KISW METAR 2021/07/30 22:54 UTC NOAA

KISW 302254Z AUTO 27006KT 10SM CLR 23/13 A3014 RMK AO2 SLP204 T02280128


Station Type Date Time Source
KISW Decoded METAR 2021/07/30 22:54 UTC NOAA

WI RAPIDS ALEXANDER FIELD, WI, United States (KISW) 44-22N 89-50W 307M
Jul 30, 2021 - 06:54 PM EDT / 2021.07.30 2254 UTC
Wind: from the W (270 degrees) at 7 MPH (6 KT):0
Visibility: 10 mile(s):0
Sky conditions: clear
Temperature: 73.0 F (22.8 C)
Dew Point: 55.0 F (12.8 C)
Relative Humidity: 53%
Pressure (altimeter): 30.14 in. Hg (1020 hPa)
ob: KISW 302254Z AUTO 27006KT 10SM CLR 23/13 A3014 RMK AO2 SLP204 T02280128
cycle: 23

Station Type Date Time Source
KISW TAF UTC NOAA

Error!

Example: see airport list